• Join FlightAware (Why Join?)
  • Login
  • US Flag 
04:01AM EDT


 

Airport Tracker/Info


-or-


 

Live Flight TrackerFlight Track Log ✈ DAL1766 ✈ 18-Jul-2013 ✈ KATL - KFNT

Flight Track Log - Related Links

Times and Time Zones

All times are in EDT time to prevent confusion due to time zone crossing. See the DAL1766 flight status page for this flight to view local times or setup timezone preferences in your user account.

Time Position Orientation Groundspeed Altitude Reporting Facility
EDT Latitude Longitude Course Direction KTS MPH feet Rate Location/Type
08:57PM 33.6500 -84.3667 340° North 192 221 2,300  Level Atlanta TRACON
08:58PM 33.6667 -84.2833 76° East 264 304 4,100 2,340 Climbing Atlanta TRACON
08:59PM 33.8357 -84.1690 320° Northwest  Level FlightAware Approximate
08:59PM 33.6833 -84.2000 76° East 279 321 7,000  Level Atlanta TRACON
09:00PM 33.9298 -84.2631 320° Northwest  Level FlightAware Approximate
09:00PM 33.7500 -84.1833 12° North 292 336 9,600  Level Atlanta TRACON
09:01PM 34.0435 -84.3167 339° North  Level FlightAware Approximate
09:02PM 34.1592 -84.3615 340° North  Level FlightAware Approximate
09:02PM 33.9317 -84.2667 339° North 338 389 11,200  Level Atlanta Center
09:03PM 34.0381 -84.3119 341° North 385 443 13,500 2,220 Climbing Atlanta Center
09:04PM 34.1486 -84.3550 342° North 412 474 15,700 2,040 Climbing Atlanta Center
09:05PM 34.2656 -84.3656 356° North 417 480 17,600 1,740 Climbing Atlanta Center
09:06PM 34.3908 -84.3636 North 431 496 19,200 1,500 Climbing Atlanta Center
09:07PM 34.5014 -84.3614 North 439 505 20,600 1,380 Climbing Atlanta Center
09:08PM 34.6308 -84.3594 North 446 513 22,000 1,320 Climbing Atlanta Center
09:09PM 34.7603 -84.3600 360° North 456 525 23,300 1,380 Climbing Atlanta Center
09:10PM 34.8936 -84.3578 North 469 540 24,800 1,500 Climbing Atlanta Center
09:11PM 35.0336 -84.3583 360° North 464 534 26,400 1,620 Climbing Atlanta Center
09:12PM 35.1628 -84.3539 North 464 534 28,100 1,380 Climbing Atlanta Center
09:13PM 35.2922 -84.3314 North 464 534 29,200 1,080 Climbing Atlanta Center
09:14PM 35.4197 -84.3064 North 464 534 30,300 1,140 Climbing Atlanta Center
09:15PM 35.5469 -84.2864 North 464 534 31,500 900 Climbing Atlanta Center
09:16PM 35.6764 -84.2817 North 464 534 32,100 600 Climbing Atlanta Center
09:17PM 35.8036 -84.2819 360° North 459 528 32,700 540 Climbing Atlanta Center
09:18PM 35.9286 -84.2822 360° North 459 528 33,200 360 Climbing Atlanta Center
09:20PM 36.1292 -84.2850 359° North 455 524 33,800 240 Climbing Indianapolis Center
09:21PM 36.2558 -84.2869 359° North 456 525 34,000 60 Climbing Indianapolis Center
09:22PM 36.4050 -84.2883 360° North 450 518 34,000  Level Indianapolis Center
09:23PM 36.5239 -84.2889 360° North 451 519 34,000  Level Indianapolis Center
09:24PM 36.6503 -84.2908 359° North 450 518 34,000  Level Indianapolis Center
09:25PM 36.7769 -84.2911 360° North 452 520 34,000  Level Indianapolis Center
09:26PM 36.9017 -84.2925 359° North 449 517 34,000  Level Indianapolis Center
09:27PM 37.0494 -84.2944 359° North 452 520 34,000  Level Indianapolis Center
09:28PM 37.1756 -84.2953 360° North 452 520 34,000  Level Indianapolis Center
09:29PM 37.3022 -84.2969 359° North 454 522 34,000  Level Indianapolis Center
09:30PM 37.4264 -84.2994 359° North 447 514 34,000  Level Indianapolis Center
09:31PM 37.5522 -84.3011 359° North 448 516 34,000  Level Indianapolis Center
09:32PM 37.6808 -84.2992 North 455 524 34,000  Level Indianapolis Center
09:33PM 37.8078 -84.3000 360° North 456 525 34,000  Level Indianapolis Center
09:34PM 37.9342 -84.3033 359° North 453 521 34,000  Level Indianapolis Center
09:35PM 38.0578 -84.3047 359° North 446 513 34,000  Level Indianapolis Center
09:36PM 38.2022 -84.3047 360° North 444 511 34,000  Level Indianapolis Center
09:37PM 38.3264 -84.3064 359° North 445 512 34,000  Level Indianapolis Center
09:38PM 38.4525 -84.3078 360° North 450 518 34,000  Level Indianapolis Center
09:39PM 38.5756 -84.3078 360° North 443 510 34,000  Level Indianapolis Center
09:40PM 38.7069 -84.3022 North 440 506 34,000  Level Indianapolis Center
09:41PM 38.8303 -84.2808 North 442 509 34,000  Level Indianapolis Center
09:42PM 38.9544 -84.2619 North 444 511 34,000  Level Indianapolis Center
09:43PM 39.0781 -84.2403 North 443 510 34,000  Level Indianapolis Center
09:44PM 39.2019 -84.2208 North 445 512 34,000  Level Indianapolis Center
09:45PM 39.3278 -84.2014 North 448 516 34,000  Level Indianapolis Center
09:46PM 39.4500 -84.1792 North 442 509 34,000  Level Indianapolis Center
09:47PM 39.5742 -84.1608 North 442 509 34,000  Level Indianapolis Center
09:48PM 39.6997 -84.1403 North 447 514 34,000  Level Indianapolis Center
09:49PM 39.8242 -84.1203 North 444 511 34,000  Level Indianapolis Center
09:50PM 39.9489 -84.0992 North 445 512 34,000  Level Indianapolis Center
09:51PM 40.0747 -84.0789 North 447 514 34,000 -660 Level Indianapolis Center
09:52PM 40.1989 -84.0583 North 445 512 32,700 -1,380 Descending Indianapolis Center
09:53PM 40.3222 -84.0497 North 440 506 31,200 -1,680 Descending Indianapolis Center
09:54PM 40.4444 -84.0731 352° North 439 505 29,300 -1,620 Descending Indianapolis Center
09:55PM 40.5675 -84.0989 351° North 441 507 28,000 -660 Descending Indianapolis Center
09:57PM 40.6889 -84.1239 351° North 439 505 28,000  Level Indianapolis Center
09:58PM 40.8119 -84.1494 351° North 442 509 28,000  Level Indianapolis Center
09:59PM 40.9556 -84.1786 351° North 444 511 28,000 -840 Level Indianapolis Center
10:00PM 41.0764 -84.2036 351° North 441 507 26,400 -1,380 Descending Indianapolis Center
10:01PM 41.2008 -84.2289 351° North 441 507 25,200 -1,140 Descending Indianapolis Center
10:02PM 41.3200 -84.2536 351° North 436 502 24,100 -600 Descending Indianapolis Center
10:03PM 41.4397 -84.2797 351° North 432 497 24,000 -600 Descending Indianapolis Center
10:04PM 41.5594 -84.3050 351° North 432 497 23,000 -540 Descending Indianapolis Center
10:05PM 41.6781 -84.3303 351° North 428 493 23,000  Level Indianapolis Center
10:06PM 41.7958 -84.3556 351° North 427 491 23,000  Level Indianapolis Center
10:07PM 41.9158 -84.3814 351° North 423 487 23,000  Level Cleveland Center
10:08PM 42.0381 -84.4081 351° North 428 493 23,000 -480 Level Cleveland Center
10:09PM 42.1292 -84.4275 351° North 423 487 22,100 -1,620 Descending Cleveland Center
10:10PM 42.2492 -84.4517 352° North 411 473 19,800 -2,400 Descending Cleveland Center
10:11PM 42.3533 -84.3878 24° Northeast 388 447 17,300 -4,440 Descending Cleveland Center
10:12PM 42.4519 -84.3092 30° Northeast 393 452 11,000 -2,280 Descending Cleveland Center
10:13PM 42.5458 -84.2417 28° Northeast 388 447 12,800  Climbing Cleveland Center
10:14PM 42.6397 -84.1736 28° Northeast 388 447 11,100 -1,260 Descending Cleveland Center
10:15PM 42.7189 -84.1103 30° Northeast 355 409 10,300 -1,200 Descending Cleveland Center
10:16PM 42.7861 -84.0178 45° Northeast 323 372 8,700 -1,620 Descending Cleveland Center
10:18PM 42.8850 -83.8447 52° Northeast 301 346 5,600 -1,560 Descending Cleveland Center
10:19PM 42.8925 -83.7317 85° East 285 328 4,100 -1,500 Descending Cleveland Center